Time;durP1;ratioP1;P1;durP2;ratioP2;P2;SDS_P1;SDS_P2;PMS_P1;PMS_P2;Temp;Humidity;BMP_temperature;BMP_pressure;BME280_temperature;BME280_humidity;BME280_pressure;Samples;Min_cycle;Max_cycle;Signal;HPM_P1;HPM_P2
2021/12/14 00:00:33;;;;;;;22.63;15.60;;;;;;;-144.99;100.00;57660.31;344806;28;1595;-62
2021/12/14 00:00:52;;;;;;;21.13;14.52;;;;;;;-144.99;100.00;57660.31;344222;28;1919;-62
2021/12/14 00:01:13;;;;;;;21.77;15.20;;;;;;;-144.99;100.00;57660.31;344972;28;1623;-63
2021/12/14 00:01:25;;;;;;;22.08;14.98;;;;;;;-144.99;100.00;57660.31;344946;28;1055;-63
2021/12/14 00:01:45;;;;;;;22.95;15.15;;;;;;;-144.99;100.00;57660.31;344925;28;1107;-62
2021/12/14 00:01:58;;;;;;;21.52;15.10;;;;;;;-144.99;100.00;57660.31;344696;28;1638;-62
2021/12/14 00:02:11;;;;;;;20.75;15.00;;;;;;;-144.99;100.00;57660.31;344716;28;1021;-63
2021/12/14 00:02:27;;;;;;;21.92;15.20;;;;;;;-144.99;100.00;57660.31;344783;28;1031;-64
2021/12/14 00:02:42;;;;;;;22.52;15.45;;;;;;;-144.99;100.00;57660.31;344858;28;1338;-62
2021/12/14 00:02:55;;;;;;;23.08;14.98;;;;;;;-144.99;100.00;57660.31;344940;28;1131;-63
2021/12/14 00:03:09;;;;;;;21.88;14.55;;;;;;;-144.99;100.00;57660.31;344849;28;1043;-63
2021/12/14 00:03:25;;;;;;;22.23;15.13;;;;;;;-144.99;100.00;57660.31;344861;28;1063;-63
2021/12/14 00:03:40;;;;;;;23.25;15.48;;;;;;;-144.99;100.00;57660.31;345099;28;1171;-63
2021/12/14 00:03:57;;;;;;;22.23;15.07;;;;;;;-144.99;100.00;57660.31;344834;28;931;-64
2021/12/14 00:04:29;;;;;;;21.38;14.90;;;;;;;-144.99;100.00;57660.31;344738;28;1255;-63
2021/12/14 00:04:42;;;;;;;20.67;15.15;;;;;;;-144.99;100.00;57660.31;343538;28;1332;-63
2021/12/14 00:04:59;;;;;;;21.17;14.77;;;;;;;-144.99;100.00;57660.31;343512;28;1038;-63
2021/12/14 00:05:13;;;;;;;22.73;15.05;;;;;;;-144.99;100.00;57660.31;343572;28;1114;-64
2021/12/14 00:05:27;;;;;;;22.95;15.65;;;;;;;-144.99;100.00;57660.31;343873;28;1040;-63
2021/12/14 00:05:40;;;;;;;23.50;16.27;;;;;;;-144.99;100.00;57660.31;343681;28;1082;-63
2021/12/14 00:05:53;;;;;;;23.45;16.30;;;;;;;-144.99;100.00;57660.31;343534;28;1304;-63
2021/12/14 00:06:06;;;;;;;24.30;16.45;;;;;;;-144.99;100.00;57660.31;344856;28;1707;-63
2021/12/14 00:06:20;;;;;;;24.88;16.27;;;;;;;-144.99;100.00;57660.31;344908;28;1209;-64
2021/12/14 00:06:36;;;;;;;23.85;16.05;;;;;;;-144.99;100.00;57660.31;345042;28;1114;-63
2021/12/14 00:06:51;;;;;;;22.77;15.68;;;;;;;-144.99;100.00;57660.31;344993;28;1011;-62
2021/12/14 00:07:06;;;;;;;22.55;15.20;;;;;;;-144.99;100.00;57660.31;344945;28;1874;-64
2021/12/14 00:07:19;;;;;;;23.25;15.60;;;;;;;-144.99;100.00;57660.31;344898;28;1027;-62
2021/12/14 00:07:31;;;;;;;24.60;16.25;;;;;;;-144.99;100.00;57660.31;345029;28;1054;-63
2021/12/14 00:07:43;;;;;;;25.27;16.70;;;;;;;-144.99;100.00;57660.31;344974;28;1101;-63
2021/12/14 00:07:57;;;;;;;24.45;15.95;;;;;;;-144.99;100.00;57660.31;344912;28;1185;-63
2021/12/14 00:08:15;;;;;;;24.55;15.80;;;;;;;-144.99;100.00;57660.31;344767;28;1519;-64
2021/12/14 00:08:31;;;;;;;24.85;16.13;;;;;;;-144.99;100.00;57660.31;345955;28;1738;-63
2021/12/14 00:08:53;;;;;;;25.38;16.73;;;;;;;-144.99;100.00;57660.31;344818;28;1342;-64
2021/12/14 00:09:09;;;;;;;26.00;17.25;;;;;;;-144.99;100.00;57660.31;343468;28;1118;-63
2021/12/14 00:09:29;;;;;;;26.42;16.48;;;;;;;-144.99;100.00;57660.31;343790;28;1233;-63
2021/12/14 00:09:42;;;;;;;24.77;16.15;;;;;;;-144.99;100.00;57660.31;343826;28;1175;-63
2021/12/14 00:10:02;;;;;;;23.17;16.10;;;;;;;-144.99;100.00;57660.31;343847;28;1160;-64
2021/12/14 00:13:09;;;;;;;24.98;15.63;;;;;;;-144.99;100.00;57660.31;344986;28;1311;-63
2021/12/14 00:13:31;;;;;;;21.90;15.65;;;;;;;-144.99;100.00;57660.31;343412;28;1246;-63
2021/12/14 00:13:53;;;;;;;20.48;14.80;;;;;;;-144.99;100.00;57660.31;343615;28;1179;-64
2021/12/14 00:15:04;;;;;;;24.33;16.13;;;;;;;-144.99;100.00;57660.31;345033;28;1239;-63
2021/12/14 00:15:17;;;;;;;24.45;15.60;;;;;;;-144.99;100.00;57660.31;343738;28;1075;-64
2021/12/14 00:15:29;;;;;;;22.17;15.60;;;;;;;-144.99;100.00;57660.31;343324;28;1042;-64
2021/12/14 00:15:41;;;;;;;20.02;14.93;;;;;;;-144.99;100.00;57660.31;343771;28;1321;-64
2021/12/14 00:15:55;;;;;;;20.42;15.00;;;;;;;-144.99;100.00;57660.31;343729;28;1329;-62
2021/12/14 00:16:09;;;;;;;22.15;15.35;;;;;;;-144.99;100.00;57660.31;343703;28;1046;-64
2021/12/14 00:16:22;;;;;;;22.67;15.35;;;;;;;-144.99;100.00;57660.31;343854;28;917;-63
2021/12/14 00:16:34;;;;;;;21.42;15.07;;;;;;;-144.99;100.00;57660.31;343829;28;1086;-63
2021/12/14 00:16:52;;;;;;;22.35;15.68;;;;;;;-144.99;100.00;57660.31;344525;28;2055;-63
2021/12/14 00:17:04;;;;;;;26.27;16.67;;;;;;;-144.99;100.00;57660.31;344842;28;1565;-63
2021/12/14 00:17:29;;;;;;;27.67;17.30;;;;;;;-144.99;100.00;57660.31;344032;28;2402;-63
2021/12/14 00:17:48;;;;;;;27.10;17.65;;;;;;;-144.99;100.00;57660.31;343669;28;1122;-63
2021/12/14 00:18:04;;;;;;;27.95;17.92;;;;;;;-144.99;100.00;57660.31;344154;28;1611;-63
2021/12/14 00:18:16;;;;;;;28.10;17.58;;;;;;;-144.99;100.00;57660.31;345060;28;1228;-62
2021/12/14 00:18:28;;;;;;;25.77;17.00;;;;;;;-144.99;100.00;57660.31;345048;28;1015;-64
2021/12/14 00:18:41;;;;;;;26.30;17.20;;;;;;;-144.99;100.00;57660.31;344300;28;2253;-65
2021/12/14 00:18:53;;;;;;;26.88;17.30;;;;;;;-144.99;100.00;57660.31;344099;28;1825;-63
2021/12/14 00:19:05;;;;;;;28.00;17.77;;;;;;;-144.99;100.00;57660.31;344966;28;1889;-64
2021/12/14 00:19:18;;;;;;;28.10;17.67;;;;;;;-144.99;100.00;57660.31;344407;28;2106;-63
2021/12/14 00:19:30;;;;;;;26.73;17.35;;;;;;;-144.99;100.00;57660.31;344892;28;1483;-64
2021/12/14 00:19:43;;;;;;;24.92;17.05;;;;;;;-144.99;100.00;57660.31;344949;28;1364;-64
2021/12/14 00:19:58;;;;;;;25.15;16.92;;;;;;;-144.99;100.00;57660.31;344883;28;1350;-63
2021/12/14 00:20:19;;;;;;;25.13;16.85;;;;;;;-144.99;100.00;57660.31;343507;28;1291;-63
2021/12/14 00:21:18;;;;;;;25.75;17.13;;;;;;;-144.99;100.00;57660.31;343714;28;1075;-64
2021/12/14 00:21:31;;;;;;;26.55;17.08;;;;;;;-144.99;100.00;57660.31;343311;28;1044;-64
2021/12/14 00:21:49;;;;;;;27.58;17.35;;;;;;;-144.99;100.00;57660.31;342981;28;1701;-64
2021/12/14 00:22:07;;;;;;;29.10;18.15;;;;;;;-144.99;100.00;57660.31;344429;28;1500;-64
2021/12/14 00:22:37;;;;;;;28.98;18.38;;;;;;;-144.99;100.00;57660.31;344956;28;1067;-63
2021/12/14 00:24:14;;;;;;;25.00;17.30;;;;;;;-144.99;100.00;57660.31;344643;28;1987;-64
2021/12/14 00:24:27;;;;;;;26.52;16.98;;;;;;;-144.99;100.00;57660.31;344664;28;1094;-64
2021/12/14 00:24:39;;;;;;;24.45;16.33;;;;;;;-144.99;100.00;57660.31;344343;28;2054;-63
2021/12/14 00:24:51;;;;;;;23.17;16.17;;;;;;;-144.99;100.00;57660.31;345102;28;1110;-63
2021/12/14 00:25:05;;;;;;;24.63;16.75;;;;;;;-144.99;100.00;57660.31;344959;28;1554;-63
2021/12/14 00:25:17;;;;;;;25.92;17.50;;;;;;;-144.99;100.00;57660.31;344903;28;1234;-62
2021/12/14 00:25:35;;;;;;;23.38;16.42;;;;;;;-144.99;100.00;57660.31;344419;28;1110;-64
2021/12/14 00:25:51;;;;;;;23.20;15.60;;;;;;;-144.99;100.00;57660.31;344734;28;1023;-63
2021/12/14 00:26:03;;;;;;;24.90;16.15;;;;;;;-144.99;100.00;57660.31;344314;28;1743;-64
2021/12/14 00:26:16;;;;;;;24.77;16.33;;;;;;;-144.99;100.00;57660.31;344329;28;1836;-63
2021/12/14 00:26:29;;;;;;;25.70;16.67;;;;;;;-144.99;100.00;57660.31;343961;28;1954;-64
2021/12/14 00:26:51;;;;;;;25.90;16.83;;;;;;;-144.99;100.00;57660.31;343826;28;1179;-64
2021/12/14 00:27:06;;;;;;;25.05;16.45;;;;;;;-144.99;100.00;57660.31;344563;28;1571;-64
2021/12/14 00:27:22;;;;;;;25.90;17.30;;;;;;;-144.99;100.00;57660.31;344444;28;2103;-63
2021/12/14 00:27:34;;;;;;;26.42;17.63;;;;;;;-144.99;100.00;57660.31;345038;28;1145;-63
2021/12/14 00:27:46;;;;;;;26.15;17.55;;;;;;;-144.99;100.00;57660.31;344996;28;1772;-62
2021/12/14 00:28:04;;;;;;;26.27;17.38;;;;;;;-144.99;100.00;57660.31;344847;28;1947;-63
2021/12/14 00:28:26;;;;;;;26.13;17.08;;;;;;;-144.99;100.00;57660.31;345006;28;1256;-63
2021/12/14 00:28:39;;;;;;;26.98;17.60;;;;;;;-144.99;100.00;57660.31;345060;28;1078;-63
2021/12/14 00:28:51;;;;;;;28.98;18.27;;;;;;;-144.99;100.00;57660.31;344980;28;1093;-63
2021/12/14 00:29:05;;;;;;;29.35;18.42;;;;;;;-144.99;100.00;57660.31;344964;28;1821;-63
2021/12/14 00:29:22;;;;;;;29.55;18.45;;;;;;;-144.99;100.00;57660.31;344517;28;2166;-62
2021/12/14 00:29:38;;;;;;;28.58;18.42;;;;;;;-144.99;100.00;57660.31;345023;28;1066;-64
2021/12/14 00:29:55;;;;;;;27.33;18.10;;;;;;;-144.99;100.00;57660.31;344719;28;1338;-63
2021/12/14 00:30:08;;;;;;;26.95;17.85;;;;;;;-144.99;100.00;57660.31;344850;28;1331;-63
2021/12/14 00:30:21;;;;;;;28.48;17.85;;;;;;;-144.99;100.00;57660.31;344916;28;1064;-64
2021/12/14 00:30:35;;;;;;;29.63;17.75;;;;;;;-144.99;100.00;57660.31;345033;28;1145;-63
2021/12/14 00:30:50;;;;;;;28.38;17.70;;;;;;;-144.99;100.00;57660.31;344423;28;1839;-64
2021/12/14 00:31:08;;;;;;;27.65;17.73;;;;;;;-144.99;100.00;57660.31;345001;28;2408;-63
2021/12/14 00:31:21;;;;;;;25.55;17.17;;;;;;;-144.99;100.00;57660.31;345019;28;1172;-64
2021/12/14 00:31:36;;;;;;;24.45;17.02;;;;;;;-144.99;100.00;57660.31;345013;28;1147;-63
2021/12/14 00:31:49;;;;;;;26.30;17.27;;;;;;;-144.99;100.00;57660.31;344986;28;1222;-64
2021/12/14 00:32:07;;;;;;;28.75;18.25;;;;;;;-144.99;100.00;57660.31;344292;28;1927;-64
2021/12/14 00:32:24;;;;;;;29.58;18.50;;;;;;;-144.99;100.00;57660.31;343689;28;1219;-64
2021/12/14 00:32:37;;;;;;;29.10;18.05;;;;;;;-144.99;100.00;57660.31;343711;28;1395;-63
2021/12/14 00:32:50;;;;;;;28.20;18.17;;;;;;;-144.99;100.00;57660.31;343876;28;1057;-64
2021/12/14 00:33:06;;;;;;;28.88;18.42;;;;;;;-144.99;100.00;57660.31;344528;28;1514;-63
2021/12/14 00:33:22;;;;;;;27.95;18.17;;;;;;;-144.99;100.00;57660.31;344849;28;1086;-63
2021/12/14 00:33:36;;;;;;;26.73;17.55;;;;;;;-144.99;100.00;57660.31;344909;28;1060;-64
2021/12/14 00:33:53;;;;;;;25.95;17.20;;;;;;;-144.99;100.00;57660.31;344827;28;1055;-63
2021/12/14 00:34:07;;;;;;;25.55;17.23;;;;;;;-144.99;100.00;57660.31;343568;28;2037;-63
2021/12/14 00:34:33;;;;;;;25.90;17.70;;;;;;;-144.99;100.00;57660.31;344637;28;2095;-63
2021/12/14 00:34:48;;;;;;;26.13;17.20;;;;;;;-144.99;100.00;57660.31;343839;28;1264;-63
2021/12/14 00:35:10;;;;;;;25.77;16.95;;;;;;;-144.99;100.00;57660.31;344505;28;1578;-62
2021/12/14 00:35:22;;;;;;;26.35;17.30;;;;;;;-144.99;100.00;57660.31;345064;28;1078;-63
2021/12/14 00:35:35;;;;;;;24.50;16.73;;;;;;;-144.99;100.00;57660.31;344797;28;1051;-63
2021/12/14 00:35:48;;;;;;;23.95;16.27;;;;;;;-144.99;100.00;57660.31;344962;28;1178;-64
2021/12/14 00:36:02;;;;;;;24.08;16.33;;;;;;;-144.99;100.00;57660.31;344931;28;1928;-64
2021/12/14 00:36:14;;;;;;;23.52;16.13;;;;;;;-144.99;100.00;57660.31;344885;28;1066;-63
2021/12/14 00:36:27;;;;;;;23.42;16.08;;;;;;;-144.99;100.00;57660.31;344918;28;1389;-63
2021/12/14 00:36:39;;;;;;;24.33;16.67;;;;;;;-144.99;100.00;57660.31;344946;28;1082;-63
2021/12/14 00:36:52;;;;;;;25.27;16.65;;;;;;;-144.99;100.00;57660.31;344948;28;1042;-63
2021/12/14 00:37:07;;;;;;;25.92;16.67;;;;;;;-144.99;100.00;57660.31;344147;28;1834;-63
2021/12/14 00:37:19;;;;;;;25.30;16.60;;;;;;;-144.99;100.00;57660.31;344590;28;1991;-63
2021/12/14 00:37:35;;;;;;;25.77;17.13;;;;;;;-144.99;100.00;57660.31;343632;28;1086;-63
2021/12/14 00:37:53;;;;;;;25.58;17.00;;;;;;;-144.99;100.00;57660.31;343315;28;1800;-63
2021/12/14 00:38:06;;;;;;;25.98;16.85;;;;;;;-144.99;100.00;57660.31;344780;28;1953;-63
2021/12/14 00:38:21;;;;;;;24.60;16.92;;;;;;;-144.99;100.00;57660.31;345769;28;1059;-62
2021/12/14 00:38:36;;;;;;;23.92;17.70;;;;;;;-144.99;100.00;57660.31;345898;28;1038;-64
2021/12/14 00:38:54;;;;;;;24.40;17.92;;;;;;;-144.99;100.00;57660.31;346044;28;1367;-63
2021/12/14 00:39:08;;;;;;;25.55;17.35;;;;;;;-144.99;100.00;57660.31;344613;28;1077;-63
2021/12/14 00:39:21;;;;;;;25.52;17.00;;;;;;;-144.99;100.00;57660.31;345019;28;2097;-63
2021/12/14 00:39:33;;;;;;;25.25;16.50;;;;;;;-144.99;100.00;57660.31;345137;28;2054;-63
2021/12/14 00:39:47;;;;;;;24.02;16.52;;;;;;;-144.99;100.00;57660.31;346051;28;1093;-63
2021/12/14 00:40:05;;;;;;;23.15;16.33;;;;;;;-144.99;100.00;57660.31;346057;28;1851;-63
2021/12/14 00:40:29;;;;;;;24.25;16.15;;;;;;;-144.99;100.00;57660.31;345797;28;1332;-62
2021/12/14 00:40:47;;;;;;;23.90;16.25;;;;;;;-144.99;100.00;57660.31;345417;28;2022;-63
2021/12/14 00:41:05;;;;;;;23.75;15.82;;;;;;;-144.99;100.00;57660.31;344856;28;2125;-63
2021/12/14 00:41:22;;;;;;;22.85;15.70;;;;;;;-144.99;100.00;57660.31;344462;28;1161;-63
2021/12/14 00:41:36;;;;;;;23.85;15.75;;;;;;;-144.99;100.00;57660.31;344775;28;1237;-63
2021/12/14 00:41:49;;;;;;;23.80;15.90;;;;;;;-144.99;100.00;57660.31;344588;28;1071;-63
2021/12/14 00:42:01;;;;;;;23.70;16.23;;;;;;;-144.99;100.00;57660.31;345363;28;2013;-63
2021/12/14 00:42:14;;;;;;;22.83;15.98;;;;;;;-144.99;100.00;57660.31;345965;28;1107;-64
2021/12/14 00:42:26;;;;;;;21.15;15.60;;;;;;;-144.99;100.00;57660.31;345813;28;1052;-63
2021/12/14 00:42:38;;;;;;;21.63;15.60;;;;;;;-144.99;100.00;57660.31;345832;28;1364;-64
2021/12/14 00:42:52;;;;;;;23.25;16.48;;;;;;;-144.99;100.00;57660.31;344939;28;1137;-63
2021/12/14 00:43:05;;;;;;;25.05;17.05;;;;;;;-144.99;100.00;57660.31;344214;28;1975;-63
2021/12/14 00:43:17;;;;;;;23.63;16.65;;;;;;;-144.99;100.00;57660.31;344945;28;1192;-63
2021/12/14 00:43:29;;;;;;;23.20;16.17;;;;;;;-144.99;100.00;57660.31;345047;28;1309;-63
2021/12/14 00:43:42;;;;;;;24.50;16.75;;;;;;;-144.99;100.00;57660.31;344892;28;1336;-64
2021/12/14 00:43:55;;;;;;;26.27;17.52;;;;;;;-144.99;100.00;57660.31;345052;28;1022;-63
2021/12/14 00:44:08;;;;;;;24.45;17.08;;;;;;;-144.99;100.00;57660.31;343671;28;1251;-64
2021/12/14 00:44:21;;;;;;;23.83;16.15;;;;;;;-144.99;100.00;57660.31;343111;28;1779;-64
2021/12/14 00:44:34;;;;;;;23.05;15.45;;;;;;;-144.99;100.00;57660.31;344638;28;2012;-64
2021/12/14 00:44:47;;;;;;;22.27;15.30;;;;;;;-144.99;100.00;57660.31;344615;28;2118;-63
2021/12/14 00:44:59;;;;;;;22.27;15.48;;;;;;;-144.99;100.00;57660.31;344939;28;1862;-62
2021/12/14 00:45:12;;;;;;;23.92;16.00;;;;;;;-144.99;100.00;57660.31;344890;28;1074;-64
2021/12/14 00:45:26;;;;;;;23.58;16.15;;;;;;;-144.99;100.00;57660.31;344472;28;1898;-64
2021/12/14 00:45:41;;;;;;;23.17;16.50;;;;;;;-144.99;100.00;57660.31;343695;28;1026;-64
2021/12/14 00:45:54;;;;;;;24.05;17.13;;;;;;;-144.99;100.00;57660.31;343665;28;1043;-63
2021/12/14 00:46:07;;;;;;;23.75;17.10;;;;;;;-144.99;100.00;57660.31;343700;28;1068;-63
2021/12/14 00:46:20;;;;;;;24.67;16.77;;;;;;;-144.99;100.00;57660.31;343694;28;1275;-62
2021/12/14 00:46:35;;;;;;;26.02;16.55;;;;;;;-144.99;100.00;57660.31;343669;28;1126;-62
2021/12/14 00:46:48;;;;;;;24.50;16.58;;;;;;;-144.99;100.00;57660.31;343661;28;942;-63
2021/12/14 00:47:01;;;;;;;23.45;16.35;;;;;;;-144.99;100.00;57660.31;344245;28;1879;-62
2021/12/14 00:47:14;;;;;;;24.55;16.90;;;;;;;-144.99;100.00;57660.31;345030;28;1058;-63
2021/12/14 00:47:26;;;;;;;25.98;16.98;;;;;;;-144.99;100.00;57660.31;344469;28;1941;-65
2021/12/14 00:47:39;;;;;;;24.65;16.75;;;;;;;-144.99;100.00;57660.31;345076;28;1101;-63
2021/12/14 00:47:51;;;;;;;24.15;16.73;;;;;;;-144.99;100.00;57660.31;345023;28;1054;-63
2021/12/14 00:48:06;;;;;;;23.95;16.85;;;;;;;-144.99;100.00;57660.31;344363;28;1631;-63
2021/12/14 00:48:19;;;;;;;25.13;17.33;;;;;;;-144.99;100.00;57660.31;344554;28;1991;-62
2021/12/14 00:48:31;;;;;;;25.52;17.33;;;;;;;-144.99;100.00;57660.31;344824;28;1058;-64
2021/12/14 00:48:45;;;;;;;25.05;17.23;;;;;;;-144.99;100.00;57660.31;344414;28;2255;-64
2021/12/14 00:48:57;;;;;;;23.60;17.08;;;;;;;-144.99;100.00;57660.31;344240;28;1403;-63
2021/12/14 00:49:12;;;;;;;23.45;16.63;;;;;;;-144.99;100.00;57660.31;344763;28;1087;-63
2021/12/14 00:49:24;;;;;;;23.90;16.85;;;;;;;-144.99;100.00;57660.31;344186;28;2078;-64
2021/12/14 00:49:36;;;;;;;24.55;17.33;;;;;;;-144.99;100.00;57660.31;345054;28;1172;-64
2021/12/14 00:49:52;;;;;;;25.58;17.13;;;;;;;-144.99;100.00;57660.31;345038;28;1078;-64
2021/12/14 00:50:05;;;;;;;26.05;17.02;;;;;;;-144.99;100.00;57660.31;344727;28;1654;-63
2021/12/14 00:50:20;;;;;;;25.38;17.13;;;;;;;-144.99;100.00;57660.31;344841;28;1322;-63
2021/12/14 00:50:32;;;;;;;24.13;16.85;;;;;;;-144.99;100.00;57660.31;344968;28;1082;-62
2021/12/14 00:50:49;;;;;;;24.05;16.67;;;;;;;-144.99;100.00;57660.31;344988;28;1023;-64
2021/12/14 00:51:03;;;;;;;23.05;15.95;;;;;;;-144.99;100.00;57660.31;344406;28;1987;-63
2021/12/14 00:51:18;;;;;;;22.50;15.52;;;;;;;-144.99;100.00;57660.31;343538;28;1114;-63
2021/12/14 00:51:30;;;;;;;22.55;15.30;;;;;;;-144.99;100.00;57660.31;343486;28;1296;-64
2021/12/14 00:51:43;;;;;;;22.48;15.35;;;;;;;-144.99;100.00;57660.31;343539;28;2107;-64
2021/12/14 00:51:55;;;;;;;22.27;15.32;;;;;;;-144.99;100.00;57660.31;344812;28;1018;-63
2021/12/14 00:52:09;;;;;;;22.45;15.27;;;;;;;-144.99;100.00;57660.31;343740;28;1054;-63
2021/12/14 00:52:22;;;;;;;22.40;15.48;;;;;;;-144.99;100.00;57660.31;343553;28;1122;-64
2021/12/14 00:52:34;;;;;;;22.58;15.63;;;;;;;-144.99;100.00;57660.31;343488;28;1047;-63
2021/12/14 00:52:47;;;;;;;23.23;15.85;;;;;;;-144.99;100.00;57660.31;343619;28;1245;-63
2021/12/14 00:52:59;;;;;;;22.40;15.40;;;;;;;-144.99;100.00;57660.31;343638;28;2035;-64
2021/12/14 00:53:12;;;;;;;21.85;14.85;;;;;;;-144.99;100.00;57660.31;343952;28;1117;-63
2021/12/14 00:53:24;;;;;;;22.30;14.90;;;;;;;-144.99;100.00;57660.31;343683;28;1254;-63
2021/12/14 00:53:37;;;;;;;22.52;15.30;;;;;;;-144.99;100.00;57660.31;343766;28;1065;-63
2021/12/14 00:53:50;;;;;;;21.55;15.00;;;;;;;-144.99;100.00;57660.31;343674;28;1058;-63
2021/12/14 00:54:05;;;;;;;21.60;14.73;;;;;;;-144.99;100.00;57660.31;344650;28;1821;-63
2021/12/14 00:54:18;;;;;;;22.02;14.68;;;;;;;-144.99;100.00;57660.31;345196;28;1281;-63
2021/12/14 00:54:31;;;;;;;22.30;14.50;;;;;;;-144.99;100.00;57660.31;345029;28;1333;-63
2021/12/14 00:54:43;;;;;;;22.55;14.40;;;;;;;-144.99;100.00;57660.31;344699;28;2142;-63
2021/12/14 00:54:55;;;;;;;22.35;14.45;;;;;;;-144.99;100.00;57660.31;345185;28;1195;-64
2021/12/14 00:55:10;;;;;;;22.20;14.75;;;;;;;-144.99;100.00;57660.31;343964;28;1910;-63
2021/12/14 00:55:30;;;;;;;21.50;14.82;;;;;;;-144.99;100.00;57660.31;345060;28;2091;-64
2021/12/14 00:55:46;;;;;;;20.13;14.10;;;;;;;-144.99;100.00;57660.31;346517;28;1276;-64
2021/12/14 00:56:04;;;;;;;20.10;14.07;;;;;;;-144.99;100.00;57660.31;346317;28;1660;-63
2021/12/14 00:56:16;;;;;;;20.13;14.15;;;;;;;-144.99;100.00;57660.31;346384;28;1245;-63
2021/12/14 00:56:28;;;;;;;19.90;13.95;;;;;;;-144.99;100.00;57660.31;346430;28;1097;-63
2021/12/14 00:56:41;;;;;;;19.67;14.15;;;;;;;-144.99;100.00;57660.31;346426;28;1201;-62
2021/12/14 00:56:54;;;;;;;19.42;14.00;;;;;;;-144.99;100.00;57660.31;346408;28;1199;-64
2021/12/14 00:57:07;;;;;;;19.67;13.57;;;;;;;-144.99;100.00;57660.31;346099;28;2083;-63
2021/12/14 00:57:19;;;;;;;18.73;12.88;;;;;;;-144.99;100.00;57660.31;345620;28;1787;-63
2021/12/14 00:57:32;;;;;;;18.77;13.30;;;;;;;-144.99;100.00;57660.31;344497;28;2067;-64
2021/12/14 00:57:44;;;;;;;19.40;13.63;;;;;;;-144.99;100.00;57660.31;344876;28;2062;-63
2021/12/14 00:57:57;;;;;;;19.63;13.50;;;;;;;-144.99;100.00;57660.31;345173;28;1838;-64
2021/12/14 00:58:10;;;;;;;19.90;13.27;;;;;;;-144.99;100.00;57660.31;345115;28;1067;-63
2021/12/14 00:58:24;;;;;;;19.98;13.05;;;;;;;-144.99;100.00;57660.31;345167;28;1102;-63
2021/12/14 00:58:37;;;;;;;18.88;12.73;;;;;;;-144.99;100.00;57660.31;345031;28;1274;-63
2021/12/14 00:58:49;;;;;;;17.58;12.52;;;;;;;-144.99;100.00;57660.31;344405;28;2270;-64
2021/12/14 00:59:06;;;;;;;17.52;12.35;;;;;;;-144.99;100.00;57660.31;344118;28;2385;-63
2021/12/14 00:59:20;;;;;;;18.02;12.23;;;;;;;-144.99;100.00;57660.31;345146;28;1338;-62
2021/12/14 00:59:33;;;;;;;16.90;12.05;;;;;;;-144.99;100.00;57660.31;345247;28;1717;-62
2021/12/14 00:59:45;;;;;;;16.13;11.88;;;;;;;-144.99;100.00;57660.31;345064;28;1174;-63
2021/12/14 00:59:57;;;;;;;15.77;11.70;;;;;;;-144.99;100.00;57660.31;345109;28;1886;-63
2021/12/14 01:00:13;;;;;;;15.93;11.32;;;;;;;-144.99;100.00;57660.31;345178;28;1202;-63
2021/12/14 01:00:34;;;;;;;14.52;10.13;;;;;;;-144.99;100.00;57660.31;345107;28;1100;-63
2021/12/14 01:00:53;;;;;;;12.98;9.60;;;;;;;-144.99;100.00;57660.31;344491;28;2426;-63
2021/12/14 01:01:12;;;;;;;13.73;9.82;;;;;;;-144.99;100.00;57660.31;345148;28;1943;-64
2021/12/14 01:01:29;;;;;;;14.50;10.35;;;;;;;-144.99;100.00;57660.31;345183;28;1179;-63
2021/12/14 01:01:55;;;;;;;14.95;10.80;;;;;;;-144.99;100.00;57660.31;344352;28;1844;-64
2021/12/14 01:02:14;;;;;;;14.50;10.60;;;;;;;-144.99;100.00;57660.31;343798;28;1273;-64
2021/12/14 01:02:27;;;;;;;14.80;10.73;;;;;;;-144.99;100.00;57660.31;343683;28;1281;-63
2021/12/14 01:02:40;;;;;;;14.07;10.68;;;;;;;-144.99;100.00;57660.31;343529;28;1214;-64
2021/12/14 01:02:52;;;;;;;13.30;10.38;;;;;;;-144.99;100.00;57660.31;344932;28;1113;-63
2021/12/14 01:03:05;;;;;;;14.65;10.50;;;;;;;-144.99;100.00;57660.31;344985;28;1903;-63
2021/12/14 01:03:18;;;;;;;14.88;10.73;;;;;;;-144.99;100.00;57660.31;344911;28;1075;-63
2021/12/14 01:03:33;;;;;;;13.82;10.75;;;;;;;-144.99;100.00;57660.31;344643;28;1759;-64
2021/12/14 01:03:49;;;;;;;14.90;10.85;;;;;;;-144.99;100.00;57660.31;343885;28;1058;-63
2021/12/14 01:04:06;;;;;;;16.00;10.73;;;;;;;-144.99;100.00;57660.31;344533;28;1922;-64
2021/12/14 01:04:31;;;;;;;15.35;10.75;;;;;;;-144.99;100.00;57660.31;345125;28;1102;-63
2021/12/14 01:05:08;;;;;;;14.68;10.82;;;;;;;-144.99;100.00;57660.31;344472;28;1026;-64
2021/12/14 01:05:28;;;;;;;15.80;11.25;;;;;;;-144.99;100.00;57660.31;343994;28;1973;-63
2021/12/14 01:05:46;;;;;;;14.88;10.75;;;;;;;-144.99;100.00;57660.31;345127;28;1241;-63
2021/12/14 01:05:59;;;;;;;14.75;10.88;;;;;;;-144.99;100.00;57660.31;345006;28;1840;-63
2021/12/14 01:06:12;;;;;;;14.65;10.60;;;;;;;-144.99;100.00;57660.31;345010;28;1027;-64
2021/12/14 01:06:28;;;;;;;15.38;10.38;;;;;;;-144.99;100.00;57660.31;345112;28;1138;-62
2021/12/14 01:06:45;;;;;;;15.35;10.50;;;;;;;-144.99;100.00;57660.31;344807;28;1779;-63
2021/12/14 01:06:59;;;;;;;14.93;10.45;;;;;;;-144.99;100.00;57660.31;344945;28;1269;-63
2021/12/14 01:07:14;;;;;;;14.65;10.15;;;;;;;-144.99;100.00;57660.31;345254;28;1099;-64
2021/12/14 01:07:30;;;;;;;13.70;10.02;;;;;;;-144.99;100.00;57660.31;344475;28;2081;-63
2021/12/14 01:07:43;;;;;;;13.75;9.95;;;;;;;-144.99;100.00;57660.31;345279;28;1055;-63
2021/12/14 01:07:56;;;;;;;13.38;9.50;;;;;;;-144.99;100.00;57660.31;345382;28;1018;-62
2021/12/14 01:08:12;;;;;;;12.82;9.35;;;;;;;-144.99;100.00;57660.31;344108;28;1167;-62
2021/12/14 01:08:27;;;;;;;12.93;9.40;;;;;;;-144.99;100.00;57660.31;343869;28;1200;-62
2021/12/14 01:08:42;;;;;;;12.65;9.18;;;;;;;-144.99;100.00;57660.31;344996;28;2089;-64
2021/12/14 01:08:56;;;;;;;12.40;9.10;;;;;;;-144.99;100.00;57660.31;345387;28;1131;-62
2021/12/14 01:09:08;;;;;;;13.15;9.50;;;;;;;-144.99;100.00;57660.31;343000;28;1078;-62
2021/12/14 01:09:27;;;;;;;13.65;9.93;;;;;;;-144.99;100.00;57660.31;343827;28;2465;-63
2021/12/14 01:09:44;;;;;;;12.13;9.40;;;;;;;-144.99;100.00;57660.31;345364;28;2404;-63
2021/12/14 01:10:05;;;;;;;13.10;9.50;;;;;;;-144.99;100.00;57660.31;345187;28;1591;-63
2021/12/14 01:10:25;;;;;;;12.73;8.77;;;;;;;-144.99;100.00;57660.31;344019;28;1046;-63
2021/12/14 01:10:46;;;;;;;12.68;9.00;;;;;;;-144.99;100.00;57660.31;345494;28;1018;-65
2021/12/14 01:11:12;;;;;;;11.25;8.48;;;;;;;-144.99;100.00;57660.31;345290;28;1584;-64
2021/12/14 01:11:33;;;;;;;11.68;8.75;;;;;;;-144.99;100.00;57660.31;345188;28;942;-63
2021/12/14 01:11:48;;;;;;;11.88;8.93;;;;;;;-144.99;100.00;57660.31;345307;28;1042;-64
2021/12/14 01:12:07;;;;;;;11.48;8.60;;;;;;;-144.99;100.00;57660.31;345253;28;1560;-63
2021/12/14 01:12:32;;;;;;;11.35;8.02;;;;;;;-144.99;100.00;57660.31;344319;28;1606;-64
2021/12/14 01:12:50;;;;;;;12.07;8.68;;;;;;;-144.99;100.00;57660.31;343782;28;1918;-63
2021/12/14 01:13:06;;;;;;;11.95;8.60;;;;;;;-144.99;100.00;57660.31;344653;28;1518;-62
2021/12/14 01:13:22;;;;;;;13.70;9.05;;;;;;;-144.99;100.00;57660.31;344743;28;2429;-63
2021/12/14 01:13:40;;;;;;;12.82;9.13;;;;;;;-144.99;100.00;57660.31;344327;28;1937;-63
2021/12/14 01:14:03;;;;;;;11.68;8.57;;;;;;;-144.99;100.00;57660.31;343818;28;1229;-63
2021/12/14 01:14:28;;;;;;;10.88;8.50;;;;;;;-144.99;100.00;57660.31;345097;28;1916;-62
2021/12/14 01:14:47;;;;;;;13.43;8.55;;;;;;;-144.99;100.00;57660.31;344080;28;1148;-63
2021/12/14 01:15:28;;;;;;;11.50;8.55;;;;;;;-144.99;100.00;57660.31;344388;28;1700;-63
2021/12/14 01:16:50;;;;;;;10.60;8.02;;;;;;;-144.99;100.00;57660.31;345078;28;1534;-63